Portsoy, United Kingdom
Current Conditions -  °F | °C
As of 1:50 AM on Friday 19 Dec 2014 (Local Time) from EGQS Reporting Station
Few Clouds Few Clouds  
Wind Chill: -3°   Ceiling: Unl
Heat Index:   Visibility: 6mi
Dew Point:   Wind: 18mph
Humidity: 81%   Direction: 220°SW
Pressure: 29.26"   Gusts: NA
Location:  57.68°N, 2.69°W
Report Text: EGQS 190150Z 22016KT 9999 FEW045 03/M00 Q0991 BLU
Loading
Personal Weather Stations






























Interactive Weather Map New forecast layout! Learn more

10-Day Weather Forecast

Advertisements
Track Severe Weather on mobile